createdAt,value
2019-02-06T00:07:56.902Z,5.30
2019-02-06T00:32:11.475Z,5.30
2019-02-06T00:48:36.339Z,5.13
2019-02-06T00:52:36.265Z,5.10
2019-02-06T01:10:33.844Z,5.00
2019-02-06T01:35:06.827Z,4.90
2019-02-06T01:37:47.426Z,5.53
2019-02-06T01:44:46.099Z,4.80
2019-02-06T01:46:47.880Z,5.77
2019-02-06T01:50:27.027Z,4.80
2019-02-06T01:59:47.355Z,5.93
2019-02-06T02:15:48.006Z,6.03
2019-02-06T02:18:12.377Z,6.37
2019-02-06T03:11:54.417Z,7.27
2019-02-06T03:43:30.818Z,7.90
2019-02-06T04:22:48.651Z,6.83
2019-02-06T04:26:19.470Z,7.33
2019-02-06T04:46:13.289Z,7.33
2019-02-06T04:49:16.568Z,6.90
2019-02-06T04:52:54.870Z,7.33
2019-02-06T04:56:14.833Z,6.60
2019-02-06T05:03:29.798Z,6.40
2019-02-06T05:19:46.241Z,6.83
2019-02-06T05:23:01.199Z,6.57
2019-02-06T05:29:13.257Z,7.03
2019-02-06T05:32:06.727Z,7.10
2019-02-06T05:41:02.999Z,6.93
2019-02-06T05:50:42.226Z,7.83
2019-02-06T05:53:08.813Z,7.60
2019-02-06T05:57:20.231Z,7.47
2019-02-06T06:08:50.203Z,7.30
2019-02-06T06:11:35.141Z,6.40
2019-02-06T06:14:12.096Z,7.53
2019-02-06T06:17:03.423Z,7.30
2019-02-06T06:19:56.727Z,7.63
2019-02-06T06:22:47.172Z,7.13
2019-02-06T06:25:31.231Z,7.00
2019-02-06T06:28:07.425Z,7.57
2019-02-06T06:30:48.083Z,7.13
2019-02-06T06:33:27.385Z,7.27
2019-02-06T06:36:01.594Z,6.23
2019-02-06T06:39:01.492Z,7.23
2019-02-06T06:44:41.256Z,6.23
2019-02-06T06:47:20.682Z,6.80
2019-02-06T06:50:10.287Z,6.47
2019-02-06T06:52:43.184Z,7.10
2019-02-06T06:55:20.423Z,7.00
2019-02-06T06:58:00.253Z,6.57
2019-02-06T07:00:36.730Z,7.07
2019-02-06T07:03:14.656Z,7.00
2019-02-06T07:06:05.478Z,6.90
2019-02-06T07:08:37.207Z,6.47
2019-02-06T07:11:12.613Z,6.93
2019-02-06T07:13:53.515Z,6.77
2019-02-06T07:16:38.365Z,6.57
2019-02-06T07:19:18.535Z,6.70
2019-02-06T07:21:59.566Z,6.93
2019-02-06T07:24:36.708Z,7.10
2019-02-06T07:27:11.158Z,6.80
2019-02-06T07:29:44.329Z,6.87
2019-02-06T07:32:20.065Z,7.40
2019-02-06T07:34:56.107Z,6.43
2019-02-06T07:37:31.617Z,6.73
2019-02-06T07:40:07.490Z,6.23
2019-02-06T07:42:40.556Z,6.03
2019-02-06T07:45:12.276Z,6.27
2019-02-06T07:47:46.002Z,7.40
2019-02-06T07:50:29.550Z,7.37
2019-02-06T07:53:07.924Z,6.50
2019-02-06T07:55:41.650Z,6.20
2019-02-06T07:58:16.290Z,5.93
2019-02-06T08:00:51.037Z,6.10
2019-02-06T08:03:29.552Z,6.33
2019-02-06T08:06:05.766Z,6.27
2019-02-06T08:08:43.881Z,6.40
2019-02-06T08:11:16.250Z,6.53
2019-02-06T08:13:48.092Z,7.40
2019-02-06T08:16:27.166Z,6.20
2019-02-06T08:19:01.805Z,6.50
2019-02-06T08:21:38.585Z,6.00
2019-02-06T08:24:13.719Z,5.87
2019-02-06T08:26:52.456Z,7.07
2019-02-06T08:29:27.023Z,6.17
2019-02-06T08:32:05.417Z,5.93
2019-02-06T08:34:41.444Z,6.20
2019-02-06T08:37:14.960Z,5.73
2019-02-06T08:39:47.215Z,5.70
2019-02-06T08:42:31.953Z,6.03
2019-02-06T08:45:02.438Z,6.50
2019-02-06T08:47:36.454Z,5.73
2019-02-06T08:50:11.895Z,5.93
2019-02-06T08:52:53.403Z,5.60
2019-02-06T08:55:25.008Z,4.93
2019-02-06T08:58:05.271Z,6.00
2019-02-06T09:00:49.917Z,7.27
2019-02-06T09:03:22.943Z,6.53
2019-02-06T09:09:12.785Z,5.50
2019-02-06T09:12:13.287Z,5.70
2019-02-06T09:14:59.107Z,5.30
2019-02-06T09:21:53.618Z,5.83
2019-02-06T09:24:45.838Z,5.40
2019-02-06T09:27:14.739Z,4.97
2019-02-06T09:29:48.761Z,5.47
2019-02-06T09:32:31.209Z,4.67
2019-02-06T09:35:12.951Z,5.20
2019-02-06T09:37:52.137Z,5.73
2019-02-06T09:40:27.310Z,5.00
2019-02-06T09:42:58.630Z,5.80
2019-02-06T09:45:36.499Z,5.23
2019-02-06T09:48:26.136Z,5.13
2019-02-06T09:51:00.296Z,5.10
2019-02-06T09:53:34.631Z,4.20
2019-02-06T09:56:08.535Z,4.60
2019-02-06T09:58:52.331Z,4.13
2019-02-06T10:01:59.468Z,4.23
2019-02-06T10:04:41.133Z,4.70
2019-02-06T10:07:46.686Z,3.77
2019-02-06T10:10:40.454Z,4.10
2019-02-06T10:13:24.438Z,3.47
2019-02-06T10:16:00.440Z,3.93
2019-02-06T10:18:47.852Z,3.50
2019-02-06T10:21:30.695Z,3.20
2019-02-06T10:24:22.047Z,3.50
2019-02-06T10:26:58.620Z,2.80
2019-02-06T10:29:29.327Z,3.10
2019-02-06T10:32:02.082Z,2.73
2019-02-06T10:34:34.255Z,3.17
2019-02-06T10:37:12.598Z,3.10
2019-02-06T10:39:58.709Z,3.53
2019-02-06T10:42:34.315Z,3.43
2019-02-06T10:45:06.411Z,3.80
2019-02-06T10:47:39.867Z,3.73
2019-02-06T10:50:15.661Z,4.13
2019-02-06T10:52:48.325Z,3.73
2019-02-06T10:55:25.414Z,3.62
2019-02-06T10:57:57.802Z,3.20
2019-02-06T11:00:37.387Z,3.40
2019-02-06T11:03:10.281Z,3.65
2019-02-06T11:05:45.674Z,3.45
2019-02-06T11:08:18.369Z,3.27
2019-02-06T11:10:52.389Z,3.42
2019-02-06T11:13:24.068Z,3.27
2019-02-06T11:15:57.933Z,3.27
2019-02-06T11:18:32.098Z,3.10
2019-02-06T11:21:12.762Z,3.20
2019-02-06T11:23:53.426Z,3.42
2019-02-06T11:26:23.964Z,3.05
2019-02-06T11:28:56.146Z,3.02
2019-02-06T11:31:31.274Z,3.05
2019-02-06T11:34:05.919Z,3.50
2019-02-06T11:36:41.942Z,3.37
2019-02-06T11:39:23.274Z,3.60
2019-02-06T11:42:01.815Z,3.75
2019-02-06T11:44:31.511Z,3.55
2019-02-06T11:47:09.245Z,4.17
2019-02-06T11:49:47.893Z,4.30
2019-02-06T11:52:24.645Z,3.57
2019-02-06T11:55:14.820Z,3.70
2019-02-06T11:58:12.442Z,3.93
2019-02-06T12:01:19.238Z,4.30
2019-02-06T12:04:35.844Z,4.97
2019-02-06T12:07:50.632Z,4.70
2019-02-06T12:10:59.708Z,4.67
2019-02-06T12:14:03.482Z,5.27
2019-02-06T12:17:19.118Z,4.60
2019-02-06T12:20:19.765Z,4.73
2019-02-06T12:23:16.437Z,4.30
2019-02-06T12:27:06.132Z,4.70
2019-02-06T12:46:05.325Z,5.70
2019-02-06T12:58:57.321Z,6.03
2019-02-06T13:05:04.554Z,5.40
2019-02-06T13:11:30.334Z,5.77
2019-02-06T13:14:17.948Z,5.90
2019-02-06T13:17:06.372Z,5.97
2019-02-06T13:20:14.343Z,6.17
2019-02-06T13:26:37.402Z,6.80
2019-02-06T13:29:53.263Z,6.37
2019-02-06T13:33:00.475Z,6.37
2019-02-06T13:35:41.101Z,6.30
2019-02-06T13:39:03.646Z,7.03
2019-02-06T13:41:50.254Z,7.33
2019-02-06T13:44:41.452Z,8.57
2019-02-06T13:47:38.189Z,9.93
2019-02-06T13:50:23.735Z,11.30
2019-02-06T13:53:13.777Z,9.97
2019-02-06T13:56:13.266Z,10.60
2019-02-06T14:02:16.111Z,10.83
2019-02-06T14:05:08.117Z,9.60
2019-02-06T14:11:15.913Z,8.87
2019-02-06T14:14:51.527Z,9.73
2019-02-06T14:21:50.199Z,8.63
2019-02-06T14:24:22.367Z,8.67
2019-02-06T14:27:20.838Z,8.40
2019-02-06T14:30:53.787Z,7.87
2019-02-06T14:34:25.676Z,7.77
2019-02-06T14:42:15.458Z,8.40
2019-02-06T15:21:02.426Z,8.23
2019-02-06T15:24:57.432Z,7.67
2019-02-06T15:28:45.417Z,13.23
2019-02-06T15:44:38.242Z,8.97
2019-02-06T15:52:22.239Z,7.33
2019-02-06T15:59:16.466Z,7.23
2019-02-06T16:03:37.599Z,6.70
2019-02-06T16:10:32.476Z,6.90
2019-02-06T16:13:56.258Z,7.30
2019-02-06T17:07:48.696Z,6.90
2019-02-06T17:13:44.081Z,6.23
2019-02-06T17:43:32.518Z,6.90
2019-02-06T18:03:43.437Z,8.03
2019-02-06T18:06:17.868Z,8.27
2019-02-06T18:09:59.836Z,8.53
2019-02-06T18:19:43.230Z,8.70
2019-02-06T18:22:34.351Z,8.40
2019-02-06T18:25:41.079Z,7.50
2019-02-06T18:43:20.871Z,8.70
2019-02-06T18:46:33.861Z,8.70
2019-02-06T18:53:27.339Z,8.20
2019-02-06T19:03:40.779Z,8.03
2019-02-06T19:10:00.338Z,7.90
2019-02-06T19:13:07.880Z,6.93
2019-02-06T19:16:25.648Z,7.30
2019-02-06T19:28:36.812Z,6.60
2019-02-06T19:31:36.030Z,8.33
2019-02-06T19:39:50.304Z,8.17
2019-02-06T19:49:37.892Z,7.77
2019-02-06T19:52:19.258Z,7.40
2019-02-06T19:55:15.102Z,7.97
2019-02-06T19:57:54.787Z,8.40
2019-02-06T20:00:44.158Z,7.50
2019-02-06T20:03:34.099Z,7.43
2019-02-06T20:05:57.970Z,7.47
2019-02-06T20:08:52.629Z,8.37
2019-02-06T20:11:46.901Z,8.27
2019-02-06T20:14:29.874Z,8.13
2019-02-06T20:17:38.907Z,7.50
2019-02-06T20:20:15.801Z,7.67
2019-02-06T20:23:29.426Z,7.70
2019-02-06T20:26:31.592Z,7.23
2019-02-06T20:29:28.520Z,7.00
2019-02-06T20:32:39.911Z,7.17
2019-02-06T20:35:19.055Z,6.63
2019-02-06T20:41:11.088Z,7.50
2019-02-06T20:44:09.792Z,7.40
2019-02-06T20:47:00.484Z,6.83
2019-02-06T20:49:35.388Z,6.60
2019-02-06T20:52:07.277Z,7.57
2019-02-06T20:54:40.904Z,7.27
2019-02-06T20:57:30.597Z,7.67
2019-02-06T21:00:10.045Z,7.27
2019-02-06T21:02:44.801Z,7.73
2019-02-06T21:05:22.036Z,6.97
2019-02-06T21:07:58.276Z,6.77
2019-02-06T21:10:32.531Z,6.77
2019-02-06T21:13:15.646Z,7.10
2019-02-06T21:15:43.451Z,7.37
2019-02-06T21:18:16.865Z,7.30
2019-02-06T21:20:59.078Z,7.40
2019-02-06T21:23:33.330Z,6.70
2019-02-06T21:26:10.994Z,6.50
2019-02-06T21:29:19.991Z,6.90
2019-02-06T21:32:03.977Z,7.10
2019-02-06T21:35:03.542Z,6.70
2019-02-06T21:37:30.893Z,6.50
2019-02-06T21:40:16.256Z,6.83
2019-02-06T21:43:10.017Z,6.33
2019-02-06T21:45:48.380Z,6.63
2019-02-06T21:48:55.520Z,6.93
2019-02-06T21:51:42.232Z,7.00
2019-02-06T21:54:20.796Z,5.77
2019-02-06T21:57:07.503Z,7.93
2019-02-06T21:59:54.555Z,6.73
2019-02-06T22:02:30.732Z,6.17
2019-02-06T22:05:14.256Z,6.60
2019-02-06T22:07:48.314Z,5.70
2019-02-06T22:10:27.171Z,6.40
2019-02-06T22:13:05.294Z,6.10
2019-02-06T22:15:43.099Z,5.73
2019-02-06T22:18:15.852Z,6.23
2019-02-06T22:20:52.408Z,5.83
2019-02-06T22:23:27.407Z,5.47
2019-02-06T22:29:48.935Z,5.53
2019-02-06T22:32:02.890Z,4.80
2019-02-06T22:34:43.327Z,4.37
2019-02-06T22:37:47.980Z,5.00
2019-02-06T22:40:50.831Z,4.40
2019-02-06T22:44:06.058Z,4.13
2019-02-06T22:47:04.736Z,3.90
2019-02-06T22:50:44.934Z,4.13
2019-02-06T22:53:32.328Z,4.67
2019-02-06T22:56:23.682Z,4.67
2019-02-06T22:59:41.214Z,4.43
2019-02-06T23:02:37.951Z,4.83
2019-02-06T23:05:24.177Z,4.60
2019-02-06T23:08:19.232Z,5.20
2019-02-06T23:11:20.545Z,5.30
2019-02-06T23:14:37.145Z,5.07
2019-02-06T23:17:01.957Z,6.40
2019-02-06T23:19:38.374Z,5.90
2019-02-06T23:28:24.425Z,6.63
2019-02-06T23:31:18.723Z,7.00
2019-02-06T23:34:00.212Z,7.43
2019-02-06T23:36:52.362Z,8.23
2019-02-06T23:40:01.154Z,7.93
2019-02-06T23:42:57.866Z,8.47
2019-02-06T23:45:54.631Z,8.87
2019-02-06T23:48:45.628Z,9.43
2019-02-06T23:55:26.983Z,9.67
